createdAt,value
2023-05-24T00:00:08.743Z,5.10
2023-05-24T00:05:08.529Z,6.90
2023-05-24T00:10:08.628Z,4.63
2023-05-24T00:15:08.619Z,6.82
2023-05-24T00:20:08.694Z,5.63
2023-05-24T00:25:08.701Z,5.88
2023-05-24T00:30:08.660Z,6.40
2023-05-24T00:35:08.631Z,6.13
2023-05-24T00:40:08.699Z,6.13
2023-05-24T00:45:08.682Z,4.28
2023-05-24T00:50:08.667Z,5.18
2023-05-24T00:55:08.748Z,5.50
2023-05-24T01:00:08.748Z,6.60
2023-05-24T01:05:08.866Z,3.47
2023-05-24T01:10:08.880Z,3.63
2023-05-24T01:15:08.865Z,5.47
2023-05-24T01:20:08.898Z,5.38
2023-05-24T01:25:08.066Z,3.08
2023-05-24T01:30:08.029Z,3.80
2023-05-24T01:35:07.982Z,2.83
2023-05-24T01:40:07.994Z,4.30
2023-05-24T01:45:08.027Z,4.63
2023-05-24T01:50:08.024Z,8.90
2023-05-24T01:55:08.026Z,6.93
2023-05-24T02:00:07.995Z,5.15
2023-05-24T02:05:07.991Z,5.95
2023-05-24T02:10:08.024Z,4.13
2023-05-24T02:15:08.029Z,6.55
2023-05-24T02:20:08.072Z,8.38
2023-05-24T02:25:08.122Z,4.82
2023-05-24T02:30:08.107Z,4.45
2023-05-24T02:35:08.144Z,4.75
2023-05-24T02:40:08.163Z,3.17
2023-05-24T02:45:08.271Z,5.07
2023-05-24T02:50:08.235Z,7.43
2023-05-24T02:55:08.245Z,7.82
2023-05-24T03:00:08.261Z,6.72
2023-05-24T03:05:08.232Z,7.90
2023-05-24T03:10:08.292Z,7.70
2023-05-24T03:15:08.278Z,8.43
2023-05-24T03:20:08.349Z,4.78
2023-05-24T03:25:08.403Z,6.47
2023-05-24T03:30:08.405Z,4.97
2023-05-24T03:35:08.396Z,3.83
2023-05-24T03:40:08.423Z,4.78
2023-05-24T03:45:08.409Z,5.50
2023-05-24T03:50:08.419Z,7.88
2023-05-24T03:55:08.382Z,7.40
2023-05-24T04:00:08.352Z,6.45
2023-05-24T04:05:02.423Z,6.72
2023-05-24T04:10:02.490Z,5.30
2023-05-24T04:15:02.750Z,9.10
2023-05-24T04:20:03.021Z,8.10
2023-05-24T04:25:02.370Z,13.20
2023-05-24T04:30:03.224Z,7.43
2023-05-24T04:35:02.372Z,6.40
2023-05-24T04:40:02.554Z,5.70
2023-05-24T04:45:02.916Z,4.88
2023-05-24T04:50:02.068Z,7.60
2023-05-24T04:55:02.208Z,9.27
2023-05-24T05:00:02.373Z,7.45
2023-05-24T05:05:02.656Z,7.75
2023-05-24T05:10:02.916Z,12.18
2023-05-24T05:15:03.047Z,9.02
2023-05-24T05:20:02.298Z,4.85
2023-05-24T05:25:02.491Z,12.27
2023-05-24T05:30:02.612Z,9.25
2023-05-24T05:35:02.826Z,9.35
2023-05-24T05:40:02.902Z,11.20
2023-05-24T05:45:03.033Z,8.65
2023-05-24T05:50:02.288Z,11.65
2023-05-24T05:55:02.391Z,8.20
2023-05-24T06:00:02.601Z,11.05
2023-05-24T06:05:02.832Z,10.45
2023-05-24T06:10:02.901Z,12.00
2023-05-24T06:15:03.009Z,13.90
2023-05-24T06:20:02.259Z,10.68
2023-05-24T06:25:02.368Z,8.60
2023-05-24T06:30:02.571Z,13.30
2023-05-24T06:35:02.726Z,18.08
2023-05-24T06:40:02.966Z,18.85
2023-05-24T06:45:02.096Z,22.10
2023-05-24T06:50:02.174Z,21.40
2023-05-24T06:55:02.290Z,12.95
2023-05-24T07:00:02.406Z,17.85
2023-05-24T07:05:02.732Z,15.13
2023-05-24T07:10:03.003Z,15.48
2023-05-24T07:15:02.153Z,12.63
2023-05-24T07:20:02.562Z,14.60
2023-05-24T07:25:02.808Z,13.75
2023-05-24T07:30:03.034Z,13.65
2023-05-24T07:35:02.184Z,20.20
2023-05-24T07:40:02.388Z,20.23
2023-05-24T07:45:02.578Z,10.95
2023-05-24T07:50:02.748Z,9.23
2023-05-24T07:55:02.918Z,13.45
2023-05-24T08:00:03.433Z,12.05
2023-05-24T08:05:02.585Z,11.73
2023-05-24T08:10:02.646Z,18.83
2023-05-24T08:15:02.703Z,14.25
2023-05-24T08:20:03.041Z,10.90
2023-05-24T08:25:02.281Z,15.68
2023-05-24T08:30:02.439Z,11.35
2023-05-24T08:35:18.335Z,11.48
2023-05-24T08:40:02.148Z,9.80
2023-05-24T08:45:02.220Z,18.92
2023-05-24T08:50:02.453Z,10.55
2023-05-24T08:55:02.529Z,10.73
2023-05-24T09:00:02.849Z,11.48
2023-05-24T09:05:02.908Z,10.20
2023-05-24T09:10:03.071Z,11.43
2023-05-24T09:15:02.310Z,13.93
2023-05-24T09:20:02.737Z,10.18
2023-05-24T09:25:02.983Z,6.70
2023-05-24T09:30:02.069Z,13.23
2023-05-24T09:35:02.220Z,9.25
2023-05-24T09:40:02.365Z,7.65
2023-05-24T09:45:12.550Z,0
2023-05-24T09:50:02.743Z,8.52
2023-05-24T09:55:02.884Z,11.93
2023-05-24T10:00:02.098Z,12.85
2023-05-24T10:05:02.333Z,8.60
2023-05-24T10:10:07.423Z,10.07
2023-05-24T10:15:02.843Z,9.18
2023-05-24T10:20:02.955Z,14.50
2023-05-24T10:25:02.017Z,8.88
2023-05-24T10:30:02.126Z,5.65
2023-05-24T10:35:02.309Z,9.60
2023-05-24T10:40:02.444Z,12.73
2023-05-24T10:45:02.703Z,7.75
2023-05-24T10:50:02.930Z,12.18
2023-05-24T10:55:04.632Z,7.88
2023-05-24T11:00:03.226Z,9.30
2023-05-24T11:05:02.367Z,12.23
2023-05-24T11:10:02.587Z,8.48
2023-05-24T11:15:02.856Z,9.98
2023-05-24T11:20:03.196Z,6.97
2023-05-24T11:25:02.451Z,9.13
2023-05-24T11:30:02.649Z,9.20
2023-05-24T11:35:02.800Z,11.82
2023-05-24T11:40:02.880Z,7.80
2023-05-24T11:45:03.099Z,6.93
2023-05-24T11:50:02.164Z,11.80
2023-05-24T11:55:02.484Z,9.38
2023-05-24T12:00:02.562Z,12.98
2023-05-24T12:05:03.074Z,8.27
2023-05-24T12:10:02.379Z,11.98
2023-05-24T12:15:02.543Z,9.27
2023-05-24T12:20:02.775Z,9.50
2023-05-24T12:25:03.156Z,9.82
2023-05-24T12:30:02.293Z,10.88
2023-05-24T12:35:02.489Z,9.77
2023-05-24T12:40:02.697Z,12.90
2023-05-24T12:45:02.898Z,8.43
2023-05-24T12:50:03.037Z,11.10
2023-05-24T12:55:02.160Z,9.77
2023-05-24T13:00:02.290Z,11.07
2023-05-24T13:05:02.468Z,6.13
2023-05-24T13:10:02.676Z,7.57
2023-05-24T13:15:02.835Z,6.65
2023-05-24T13:20:03.107Z,9.20
2023-05-24T13:25:02.267Z,8.38
2023-05-24T13:30:02.656Z,6.10
2023-05-24T13:35:04.103Z,5.47
2023-05-24T13:40:02.412Z,9.45
2023-05-24T13:45:02.618Z,5.47
2023-05-24T13:50:02.738Z,7.53
2023-05-24T13:55:02.882Z,9.07
2023-05-24T14:00:03.104Z,5.78
2023-05-24T14:05:21.552Z,7.40
2023-05-24T14:10:02.830Z,6.68
2023-05-24T14:15:02.981Z,5.63
2023-05-24T14:20:02.211Z,5.18
2023-05-24T14:25:02.433Z,7.60
2023-05-24T14:30:02.576Z,5.97
2023-05-24T14:35:02.653Z,6.25
2023-05-24T14:40:02.754Z,8.48
2023-05-24T14:45:02.968Z,8.25
2023-05-24T14:50:02.038Z,6.18
2023-05-24T14:55:02.204Z,6.85
2023-05-24T15:00:02.364Z,8.18
2023-05-24T15:05:02.474Z,7.25
2023-05-24T15:10:02.587Z,4.15
2023-05-24T15:15:02.651Z,7.50
2023-05-24T15:20:02.856Z,6.38
2023-05-24T15:25:03.005Z,5.90
2023-05-24T15:30:02.117Z,7.32
2023-05-24T15:35:02.301Z,6.88
2023-05-24T15:40:02.403Z,7.50
2023-05-24T15:45:02.536Z,7.30
2023-05-24T15:50:02.675Z,5.88
2023-05-24T15:55:02.811Z,7.63
2023-05-24T16:00:02.856Z,8.52
2023-05-24T16:05:02.993Z,6.25
2023-05-24T16:10:02.088Z,10.02
2023-05-24T16:15:02.348Z,6.93
2023-05-24T16:20:02.485Z,4.72
2023-05-24T16:25:02.613Z,3.95
2023-05-24T16:30:02.851Z,7.00
2023-05-24T16:35:03.108Z,7.82
2023-05-24T16:40:02.282Z,7.53
2023-05-24T16:45:02.383Z,5.38
2023-05-24T16:50:02.487Z,7.88
2023-05-24T16:55:02.604Z,4.47
2023-05-24T17:00:02.897Z,7.18
2023-05-24T17:05:03.084Z,6.07
2023-05-24T17:10:02.249Z,10.20
2023-05-24T17:15:02.369Z,5.13
2023-05-24T17:20:02.589Z,3.83
2023-05-24T17:25:02.783Z,6.45
2023-05-24T17:30:03.030Z,8.95
2023-05-24T17:35:02.515Z,6.00
2023-05-24T17:40:02.783Z,8.10
2023-05-24T17:45:02.836Z,5.82
2023-05-24T17:50:02.953Z,6.72
2023-05-24T17:55:02.221Z,4.28
2023-05-24T18:00:02.409Z,6.97
2023-05-24T18:05:02.726Z,6.07
2023-05-24T18:10:03.106Z,5.95
2023-05-24T18:15:02.175Z,10.85
2023-05-24T18:20:02.384Z,7.20
2023-05-24T18:25:02.588Z,6.82
2023-05-24T18:30:02.776Z,6.20
2023-05-24T18:35:02.904Z,5.40
2023-05-24T18:40:03.004Z,4.40
2023-05-24T18:45:02.080Z,9.73
2023-05-24T18:50:02.221Z,9.57
2023-05-24T18:55:02.381Z,6.10
2023-05-24T19:00:02.527Z,6.03
2023-05-24T19:05:02.643Z,4.57
2023-05-24T19:10:02.776Z,9.63
2023-05-24T19:15:02.997Z,11.20
2023-05-24T19:20:02.214Z,5.05
2023-05-24T19:25:02.358Z,7.15
2023-05-24T19:30:02.537Z,7.03
2023-05-24T19:35:02.662Z,5.13
2023-05-24T19:40:02.804Z,4.47
2023-05-24T19:45:02.913Z,6.80
2023-05-24T19:50:03.050Z,3.83
2023-05-24T19:55:02.179Z,6.50
2023-05-24T20:00:02.371Z,4.93
2023-05-24T20:05:02.422Z,4.93
2023-05-24T20:10:02.577Z,5.55
2023-05-24T20:15:02.833Z,7.40
2023-05-24T20:20:03.044Z,3.03
2023-05-24T20:25:02.901Z,4.60
2023-05-24T20:30:03.033Z,4.13
2023-05-24T20:35:02.694Z,5.35
2023-05-24T20:40:02.949Z,3.63
2023-05-24T20:45:02.100Z,8.93
2023-05-24T20:50:02.289Z,10.05
2023-05-24T20:55:02.471Z,9.02
2023-05-24T21:00:02.587Z,6.05
2023-05-24T21:05:15.510Z,6.75
2023-05-24T21:10:08.517Z,6.15
2023-05-24T21:15:08.480Z,4.88
2023-05-24T21:20:08.558Z,9.57
2023-05-24T21:25:08.644Z,7.38
2023-05-24T21:30:08.663Z,5.75
2023-05-24T21:35:08.752Z,5.43
2023-05-24T21:40:08.803Z,7.25
2023-05-24T21:45:08.847Z,6.50
2023-05-24T21:50:08.849Z,6.50
2023-05-24T21:55:08.840Z,4.07
2023-05-24T22:00:08.897Z,7.03
2023-05-24T22:05:08.926Z,3.42
2023-05-24T22:10:07.969Z,4.38
2023-05-24T22:15:07.995Z,4.03
2023-05-24T22:20:08.019Z,7.78
2023-05-24T22:25:08.067Z,7.10
2023-05-24T22:30:08.049Z,3.83
2023-05-24T22:35:08.086Z,5.15
2023-05-24T22:40:08.192Z,4.13
2023-05-24T22:45:08.224Z,3.88
2023-05-24T22:50:08.209Z,5.30
2023-05-24T22:55:08.193Z,5.30
2023-05-24T23:01:16.727Z,4.13
2023-05-24T23:05:08.872Z,2.55
2023-05-24T23:10:08.682Z,5.53
2023-05-24T23:15:08.697Z,5.03
2023-05-24T23:20:08.703Z,4.22
2023-05-24T23:25:08.713Z,6.47
2023-05-24T23:30:08.729Z,6.22
2023-05-24T23:35:08.794Z,6.85
2023-05-24T23:40:08.846Z,5.57
2023-05-24T23:45:08.830Z,3.80
2023-05-24T23:50:08.830Z,7.22
2023-05-24T23:55:08.865Z,5.97
